createdAt,value
2018-08-21T00:02:32.524Z,19.40
2018-08-21T00:04:59.797Z,19.40
2018-08-21T00:07:27.240Z,19.40
2018-08-21T00:09:54.477Z,19.30
2018-08-21T00:12:21.711Z,19.40
2018-08-21T00:15:00.504Z,19.30
2018-08-21T00:17:27.735Z,19.20
2018-08-21T00:19:57.216Z,19.20
2018-08-21T00:22:24.461Z,19.20
2018-08-21T00:24:51.691Z,19.10
2018-08-21T00:27:18.844Z,19.10
2018-08-21T00:29:45.998Z,19.10
2018-08-21T00:32:17.655Z,19.10
2018-08-21T00:34:44.875Z,19.10
2018-08-21T00:37:13.487Z,19.00
2018-08-21T00:39:41.728Z,19.00
2018-08-21T00:42:14.696Z,19.00
2018-08-21T00:44:41.887Z,19.00
2018-08-21T00:47:09.111Z,18.90
2018-08-21T00:49:36.804Z,19.00
2018-08-21T00:52:04.099Z,19.00
2018-08-21T00:54:31.303Z,18.90
2018-08-21T00:56:58.482Z,18.80
2018-08-21T00:59:28.606Z,18.80
2018-08-21T01:01:55.816Z,18.80
2018-08-21T01:04:23.047Z,18.80
2018-08-21T01:06:50.241Z,18.70
2018-08-21T01:09:19.256Z,18.70
2018-08-21T01:11:47.040Z,18.70
2018-08-21T01:14:14.241Z,18.60
2018-08-21T01:16:41.487Z,18.60
2018-08-21T01:19:09.752Z,18.60
2018-08-21T01:21:36.959Z,18.60
2018-08-21T01:24:04.162Z,18.60
2018-08-21T01:26:31.455Z,18.60
2018-08-21T01:28:58.989Z,18.50
2018-08-21T01:31:26.867Z,18.50
2018-08-21T01:33:54.309Z,18.50
2018-08-21T01:36:21.692Z,18.50
2018-08-21T01:38:51.388Z,18.50
2018-08-21T01:41:18.781Z,18.50
2018-08-21T01:43:46.190Z,18.50
2018-08-21T01:46:13.690Z,18.40
2018-08-21T01:48:41.344Z,18.40
2018-08-21T01:51:08.723Z,18.40
2018-08-21T01:53:36.168Z,18.40
2018-08-21T01:56:03.607Z,18.40
2018-08-21T01:58:30.995Z,18.30
2018-08-21T02:00:58.387Z,18.40
2018-08-21T02:03:27.432Z,18.40
2018-08-21T02:05:55.212Z,18.30
2018-08-21T02:08:22.664Z,18.30
2018-08-21T02:10:52.375Z,18.30
2018-08-21T02:13:19.855Z,18.20
2018-08-21T02:15:47.420Z,18.20
2018-08-21T02:18:14.824Z,18.20
2018-08-21T02:20:42.228Z,18.30
2018-08-21T02:23:12.993Z,18.20
2018-08-21T02:25:40.461Z,18.20
2018-08-21T02:28:07.851Z,18.20
2018-08-21T02:30:35.235Z,18.20
2018-08-21T02:33:02.614Z,18.20
2018-08-21T02:35:42.947Z,18.20
2018-08-21T02:38:10.308Z,18.20
2018-08-21T02:40:37.709Z,18.30
2018-08-21T02:43:05.219Z,18.20
2018-08-21T02:45:32.580Z,18.30
2018-08-21T02:47:59.935Z,18.30
2018-08-21T02:50:27.279Z,18.30
2018-08-21T02:52:54.662Z,18.40
2018-08-21T02:55:22.017Z,18.40
2018-08-21T02:57:50.400Z,18.50
2018-08-21T03:00:17.764Z,18.60
2018-08-21T03:02:45.152Z,18.60
2018-08-21T03:05:13.023Z,18.70
2018-08-21T03:07:40.384Z,18.70
2018-08-21T03:10:08.455Z,18.70
2018-08-21T03:12:36.499Z,18.70
2018-08-21T03:15:04.428Z,18.70
2018-08-21T03:17:31.861Z,18.80
2018-08-21T03:19:59.201Z,18.80
2018-08-21T03:22:26.732Z,18.80
2018-08-21T03:24:54.080Z,18.80
2018-08-21T03:27:21.539Z,18.80
2018-08-21T03:29:48.982Z,18.90
2018-08-21T03:32:16.441Z,18.90
2018-08-21T03:34:43.839Z,18.90
2018-08-21T03:37:12.094Z,19.00
2018-08-21T03:39:45.645Z,18.90
2018-08-21T03:42:13.713Z,19.00
2018-08-21T03:44:57.014Z,19.00
2018-08-21T03:47:27.574Z,19.00
2018-08-21T03:49:54.789Z,19.00
2018-08-21T03:52:22.019Z,19.10
2018-08-21T03:54:49.276Z,19.10
2018-08-21T03:57:22.945Z,19.00
2018-08-21T03:59:50.251Z,19.10
2018-08-21T04:02:17.515Z,19.10
2018-08-21T04:04:44.748Z,19.10
2018-08-21T04:07:13.475Z,19.20
2018-08-21T04:09:49.053Z,19.10
2018-08-21T04:12:17.972Z,19.10
2018-08-21T04:14:45.302Z,19.10
2018-08-21T04:17:18.312Z,19.10
2018-08-21T04:19:50.985Z,19.20
2018-08-21T04:22:19.415Z,19.20
2018-08-21T04:24:47.333Z,19.10
2018-08-21T04:27:14.565Z,19.20
2018-08-21T04:29:41.744Z,19.30
2018-08-21T04:32:08.870Z,19.20
2018-08-21T04:34:46.156Z,19.30
2018-08-21T04:37:13.533Z,19.30
2018-08-21T04:39:40.998Z,19.30
2018-08-21T04:42:08.414Z,19.30
2018-08-21T04:44:35.836Z,19.30
2018-08-21T04:47:08.960Z,19.20
2018-08-21T04:49:36.451Z,19.20
2018-08-21T04:52:05.938Z,19.20
2018-08-21T04:54:33.436Z,19.30
2018-08-21T04:57:00.775Z,19.30
2018-08-21T04:59:28.284Z,19.30
2018-08-21T05:01:55.708Z,19.30
2018-08-21T05:04:34.795Z,19.40
2018-08-21T05:07:02.779Z,19.40
2018-08-21T05:09:30.357Z,19.30
2018-08-21T05:11:57.960Z,19.40
2018-08-21T05:14:25.441Z,19.50
2018-08-21T05:16:54.464Z,19.50
2018-08-21T05:19:21.935Z,19.60
2018-08-21T05:21:49.452Z,19.60
2018-08-21T05:24:17.063Z,19.60
2018-08-21T05:26:44.492Z,19.60
2018-08-21T05:29:12.126Z,19.70
2018-08-21T05:31:39.591Z,19.70
2018-08-21T05:34:06.852Z,19.80
2018-08-21T05:36:34.927Z,19.80
2018-08-21T05:39:02.276Z,19.90
2018-08-21T05:41:31.554Z,19.90
2018-08-21T05:43:58.812Z,19.90
2018-08-21T05:46:27.019Z,20.00
2018-08-21T05:48:54.251Z,20.00
2018-08-21T05:51:21.659Z,20.00
2018-08-21T05:53:49.211Z,20.00
2018-08-21T05:56:16.477Z,20.10
2018-08-21T05:58:49.675Z,20.10
2018-08-21T06:01:19.947Z,20.20
2018-08-21T06:03:53.837Z,20.20
2018-08-21T06:06:21.287Z,20.20
2018-08-21T06:08:48.694Z,20.20
2018-08-21T06:11:16.098Z,20.20
2018-08-21T06:13:43.450Z,20.20
2018-08-21T06:16:10.695Z,20.30
2018-08-21T06:18:37.899Z,20.30
2018-08-21T06:21:05.167Z,20.30
2018-08-21T06:23:33.367Z,20.10
2018-08-21T06:26:04.110Z,20.20
2018-08-21T06:28:34.243Z,20.30
2018-08-21T06:31:01.482Z,20.20
2018-08-21T06:33:28.903Z,20.40
2018-08-21T06:35:57.071Z,20.30
2018-08-21T06:38:24.283Z,20.20
2018-08-21T06:40:51.515Z,20.40
2018-08-21T06:43:18.724Z,20.50
2018-08-21T06:45:45.951Z,20.50
2018-08-21T06:48:14.075Z,20.60
2018-08-21T06:50:44.824Z,20.60
2018-08-21T06:53:12.636Z,20.70
2018-08-21T06:55:39.975Z,20.80
2018-08-21T06:58:07.766Z,20.80
2018-08-21T07:00:35.759Z,20.80
2018-08-21T07:03:03.186Z,20.90
2018-08-21T07:05:33.788Z,20.70
2018-08-21T07:08:01.147Z,20.80
2018-08-21T07:10:28.372Z,20.90
2018-08-21T07:12:55.608Z,20.90
2018-08-21T07:15:22.823Z,20.90
2018-08-21T07:17:50.700Z,20.90
2018-08-21T07:20:25.581Z,21.00
2018-08-21T07:22:52.847Z,21.20
2018-08-21T07:25:20.308Z,21.20
2018-08-21T07:27:47.539Z,21.30
2018-08-21T07:30:14.836Z,21.40
2018-08-21T07:32:43.104Z,21.30
2018-08-21T07:35:11.192Z,21.50
2018-08-21T07:37:38.856Z,21.40
2018-08-21T07:40:06.941Z,21.60
2018-08-21T07:42:34.711Z,21.60
2018-08-21T07:45:02.104Z,21.50
2018-08-21T07:47:40.836Z,21.50
2018-08-21T07:50:08.208Z,21.60
2018-08-21T07:52:44.055Z,21.80
2018-08-21T07:55:16.440Z,22.00
2018-08-21T07:57:47.593Z,22.00
2018-08-21T08:00:15.797Z,22.10
2018-08-21T08:02:51.443Z,22.30
2018-08-21T08:05:23.639Z,22.40
2018-08-21T08:07:51.799Z,22.50
2018-08-21T08:10:20.995Z,22.30
2018-08-21T08:12:48.891Z,22.50
2018-08-21T08:15:16.122Z,22.80
2018-08-21T08:17:52.952Z,23.00
2018-08-21T08:20:21.392Z,23.30
2018-08-21T08:22:48.591Z,23.50
2018-08-21T08:25:15.816Z,23.60
2018-08-21T08:27:43.049Z,23.50
2018-08-21T08:30:14.711Z,23.70
2018-08-21T08:32:42.037Z,24.00
2018-08-21T08:35:15.042Z,24.00
2018-08-21T08:37:43.075Z,24.10
2018-08-21T08:40:18.493Z,24.10
2018-08-21T08:42:48.848Z,24.30
2018-08-21T08:45:16.791Z,24.40
2018-08-21T08:47:44.250Z,24.50
2018-08-21T08:50:11.654Z,24.70
2018-08-21T08:52:39.395Z,24.60
2018-08-21T08:55:08.321Z,24.40
2018-08-21T08:57:35.724Z,24.40
2018-08-21T09:00:07.316Z,24.40
2018-08-21T09:02:40.709Z,24.20
2018-08-21T09:05:10.943Z,24.30
2018-08-21T09:07:38.371Z,24.60
2018-08-21T09:10:07.023Z,24.70
2018-08-21T09:12:34.481Z,24.80
2018-08-21T09:15:01.956Z,24.70
2018-08-21T09:17:29.203Z,24.90
2018-08-21T09:20:06.129Z,25.00
2018-08-21T09:22:34.523Z,25.20
2018-08-21T09:25:01.968Z,25.30
2018-08-21T09:27:41.716Z,25.40
2018-08-21T09:30:19.838Z,25.50
2018-08-21T09:32:47.630Z,25.70
2018-08-21T09:35:19.269Z,25.70
2018-08-21T09:37:46.624Z,25.80
2018-08-21T09:40:13.975Z,26.00
2018-08-21T09:42:41.321Z,26.10
2018-08-21T09:45:08.667Z,26.30
2018-08-21T09:47:36.084Z,26.50
2018-08-21T09:50:08.868Z,26.80
2018-08-21T09:52:36.332Z,27.10
2018-08-21T09:55:05.849Z,27.10
2018-08-21T09:57:34.371Z,27.40
2018-08-21T10:00:08.830Z,27.70
2018-08-21T10:02:42.788Z,28.00
2018-08-21T10:05:15.863Z,27.80
2018-08-21T10:07:43.372Z,28.10
2018-08-21T10:10:12.600Z,28.60
2018-08-21T10:12:40.096Z,28.90
2018-08-21T10:15:09.284Z,28.90
2018-08-21T10:17:36.644Z,28.50
2018-08-21T10:20:12.586Z,28.50
2018-08-21T10:22:40.264Z,28.80
2018-08-21T10:25:07.704Z,29.10
2018-08-21T10:27:35.147Z,29.30
2018-08-21T10:30:03.027Z,29.40
2018-08-21T10:32:30.477Z,29.60
2018-08-21T10:35:02.348Z,29.50
2018-08-21T10:37:34.303Z,28.90
2018-08-21T10:40:02.558Z,29.00
2018-08-21T10:42:30.523Z,29.30
2018-08-21T10:44:57.915Z,29.60
2018-08-21T10:47:29.045Z,29.60
2018-08-21T10:49:56.424Z,29.80
2018-08-21T10:52:23.928Z,29.90
2018-08-21T10:54:51.349Z,29.90
2018-08-21T10:57:18.744Z,30.00
2018-08-21T10:59:46.183Z,30.00
2018-08-21T11:02:28.626Z,29.80
2018-08-21T11:04:56.940Z,29.50
2018-08-21T11:07:34.394Z,29.60
2018-08-21T11:10:01.851Z,29.90
2018-08-21T11:12:29.285Z,29.60
2018-08-21T11:14:56.635Z,29.40
2018-08-21T11:17:24.171Z,29.80
2018-08-21T11:19:51.379Z,30.30
2018-08-21T11:22:23.320Z,30.50
2018-08-21T11:24:50.688Z,30.70
2018-08-21T11:27:18.001Z,30.30
2018-08-21T11:29:45.389Z,30.00
2018-08-21T11:32:12.714Z,29.80
2018-08-21T11:34:40.094Z,29.70
2018-08-21T11:37:09.539Z,29.90
2018-08-21T11:39:36.880Z,30.00
2018-08-21T11:42:04.280Z,30.30
2018-08-21T11:44:31.620Z,30.40
2018-08-21T11:46:58.956Z,30.40
2018-08-21T11:49:27.370Z,30.10
2018-08-21T11:51:56.712Z,29.60
2018-08-21T11:54:24.088Z,29.20
2018-08-21T11:56:51.425Z,28.70
2018-08-21T11:59:18.745Z,28.50
2018-08-21T12:01:46.371Z,28.40
2018-08-21T12:04:13.576Z,28.80
2018-08-21T12:06:45.156Z,28.90
2018-08-21T12:09:12.516Z,29.10
2018-08-21T12:11:39.861Z,29.10
2018-08-21T12:14:07.203Z,29.20
2018-08-21T12:16:34.536Z,29.00
2018-08-21T12:19:05.442Z,29.00
2018-08-21T12:21:33.744Z,29.10
2018-08-21T12:24:01.094Z,29.00
2018-08-21T12:26:28.451Z,29.00
2018-08-21T12:28:55.804Z,29.30
2018-08-21T12:31:23.016Z,29.70
2018-08-21T12:33:53.867Z,29.60
2018-08-21T12:36:21.000Z,29.60
2018-08-21T12:38:48.168Z,29.30
2018-08-21T12:41:15.300Z,29.00
2018-08-21T12:43:42.464Z,28.70
2018-08-21T12:46:09.776Z,28.70
2018-08-21T12:48:41.980Z,28.40
2018-08-21T12:51:09.148Z,28.20
2018-08-21T12:53:36.496Z,28.10
2018-08-21T12:56:03.640Z,28.00
2018-08-21T12:58:30.840Z,28.10
2018-08-21T13:00:58.187Z,28.20
2018-08-21T13:03:25.392Z,28.30
2018-08-21T13:05:56.306Z,28.30
2018-08-21T13:08:23.607Z,28.10
2018-08-21T13:10:50.784Z,28.10
2018-08-21T13:13:17.941Z,28.10
2018-08-21T13:15:45.147Z,28.10
2018-08-21T13:18:13.800Z,28.10
2018-08-21T13:20:42.591Z,28.20
2018-08-21T13:23:09.771Z,28.20
2018-08-21T13:25:36.903Z,28.20
2018-08-21T13:28:04.068Z,28.20
2018-08-21T13:30:31.276Z,28.30
2018-08-21T13:32:58.404Z,28.30
2018-08-21T13:35:25.560Z,28.20
2018-08-21T13:37:53.964Z,28.20
2018-08-21T13:40:21.089Z,28.10
2018-08-21T13:42:48.255Z,28.20
2018-08-21T13:45:15.431Z,28.40
2018-08-21T13:47:42.749Z,28.40
2018-08-21T13:50:09.891Z,28.30
2018-08-21T13:52:41.788Z,28.30
2018-08-21T13:55:08.919Z,28.40
2018-08-21T13:57:36.064Z,28.60
2018-08-21T14:00:03.471Z,28.50
2018-08-21T14:02:30.632Z,28.50
2018-08-21T14:04:57.787Z,28.40
2018-08-21T14:07:26.467Z,28.60
2018-08-21T14:09:54.968Z,28.50
2018-08-21T14:12:22.176Z,28.40
2018-08-21T14:14:49.340Z,28.40
2018-08-21T14:17:16.572Z,28.30
2018-08-21T14:19:43.751Z,28.20
2018-08-21T14:22:10.881Z,28.20
2018-08-21T14:24:38.056Z,28.40
2018-08-21T14:27:05.188Z,28.30
2018-08-21T14:29:32.387Z,28.40
2018-08-21T14:31:59.539Z,28.50
2018-08-21T14:34:26.863Z,28.60
2018-08-21T14:36:54.080Z,28.60
2018-08-21T14:39:21.235Z,28.60
2018-08-21T14:41:48.450Z,28.40
2018-08-21T14:44:15.529Z,28.40
2018-08-21T14:46:43.736Z,28.30
2018-08-21T14:49:10.908Z,28.50
2018-08-21T14:51:38.036Z,28.60
2018-08-21T14:54:05.239Z,28.60
2018-08-21T14:56:35.883Z,28.70
2018-08-21T14:59:03.127Z,28.80
2018-08-21T15:01:30.299Z,28.80
2018-08-21T15:03:57.496Z,28.80
2018-08-21T15:06:24.736Z,28.70
2018-08-21T15:08:51.903Z,28.50
2018-08-21T15:11:19.056Z,28.40
2018-08-21T15:13:46.215Z,28.60
2018-08-21T15:16:13.371Z,28.40
2018-08-21T15:18:40.745Z,28.50
2018-08-21T15:21:08.139Z,28.60
2018-08-21T15:23:35.284Z,28.60
2018-08-21T15:26:02.480Z,28.60
2018-08-21T15:28:29.660Z,28.40
2018-08-21T15:30:57.352Z,28.50
2018-08-21T15:33:24.623Z,28.50
2018-08-21T15:35:51.808Z,28.60
2018-08-21T15:38:19.064Z,28.60
2018-08-21T15:40:46.224Z,28.60
2018-08-21T15:43:13.415Z,28.30
2018-08-21T15:45:40.882Z,28.40
2018-08-21T15:48:08.201Z,28.50
2018-08-21T15:50:35.441Z,28.60
2018-08-21T15:53:02.683Z,28.60
2018-08-21T15:55:30.194Z,28.70
2018-08-21T15:57:57.536Z,28.80
2018-08-21T16:00:24.707Z,28.70
2018-08-21T16:02:51.980Z,28.70
2018-08-21T16:05:19.198Z,28.40
2018-08-21T16:07:46.472Z,28.30
2018-08-21T16:10:13.852Z,28.50
2018-08-21T16:12:41.953Z,28.50
2018-08-21T16:15:10.051Z,28.50
2018-08-21T16:17:37.315Z,28.50
2018-08-21T16:20:04.668Z,28.40
2018-08-21T16:22:31.959Z,28.30
2018-08-21T16:24:59.459Z,28.30
2018-08-21T16:27:26.640Z,28.30
2018-08-21T16:29:53.909Z,28.30
2018-08-21T16:32:25.526Z,28.20
2018-08-21T16:34:53.160Z,28.10
2018-08-21T16:37:20.471Z,28.10
2018-08-21T16:39:48.086Z,28.10
2018-08-21T16:42:14.970Z,28.10
2018-08-21T16:44:42.243Z,28.00
2018-08-21T16:47:10.995Z,27.80
2018-08-21T16:49:38.197Z,27.80
2018-08-21T16:52:05.395Z,27.80
2018-08-21T16:54:32.812Z,27.70
2018-08-21T16:57:00.405Z,27.70
2018-08-21T16:59:27.895Z,27.60
2018-08-21T17:01:59.436Z,27.60
2018-08-21T17:04:26.936Z,27.60
2018-08-21T17:06:54.533Z,27.60
2018-08-21T17:09:22.016Z,27.60
2018-08-21T17:11:49.473Z,27.60
2018-08-21T17:14:17.144Z,27.60
2018-08-21T17:16:44.567Z,27.50
2018-08-21T17:19:11.940Z,27.50
2018-08-21T17:21:39.398Z,27.50
2018-08-21T17:24:06.760Z,27.60
2018-08-21T17:26:34.187Z,27.50
2018-08-21T17:29:01.615Z,27.40
2018-08-21T17:31:29.089Z,27.40
2018-08-21T17:33:56.538Z,27.30
2018-08-21T17:36:23.932Z,27.20
2018-08-21T17:38:51.539Z,27.30
2018-08-21T17:41:18.947Z,27.20
2018-08-21T17:43:46.339Z,27.10
2018-08-21T17:46:13.739Z,27.10
2018-08-21T17:48:41.264Z,27.00
2018-08-21T17:51:08.671Z,27.00
2018-08-21T17:53:36.154Z,27.00
2018-08-21T17:56:03.640Z,27.00
2018-08-21T17:58:31.027Z,26.90
2018-08-21T18:00:58.487Z,26.80
2018-08-21T18:03:25.903Z,26.80
2018-08-21T18:05:53.331Z,26.90
2018-08-21T18:08:20.712Z,26.80
2018-08-21T18:10:48.099Z,26.80
2018-08-21T18:13:15.521Z,26.70
2018-08-21T18:15:43.011Z,26.70
2018-08-21T18:18:10.409Z,26.70
2018-08-21T18:20:37.804Z,26.60
2018-08-21T18:23:05.292Z,26.60
2018-08-21T18:25:32.796Z,26.60
2018-08-21T18:28:00.266Z,26.50
2018-08-21T18:30:27.720Z,26.50
2018-08-21T18:32:55.109Z,26.50
2018-08-21T18:35:22.641Z,26.40
2018-08-21T18:37:50.035Z,26.40
2018-08-21T18:40:17.420Z,26.40
2018-08-21T18:42:45.186Z,26.30
2018-08-21T18:45:12.615Z,26.30
2018-08-21T18:47:40.026Z,26.30
2018-08-21T18:50:07.445Z,26.20
2018-08-21T18:52:34.796Z,26.10
2018-08-21T18:55:02.635Z,26.10
2018-08-21T18:57:30.063Z,26.10
2018-08-21T18:59:57.503Z,26.10
2018-08-21T19:02:24.929Z,26.00
2018-08-21T19:04:52.325Z,25.90
2018-08-21T19:07:19.754Z,25.90
2018-08-21T19:09:48.666Z,25.90
2018-08-21T19:12:17.015Z,25.80
2018-08-21T19:14:44.425Z,25.80
2018-08-21T19:17:11.864Z,25.70
2018-08-21T19:19:39.620Z,25.70
2018-08-21T19:22:07.017Z,25.70
2018-08-21T19:24:34.469Z,25.60
2018-08-21T19:27:02.014Z,25.50
2018-08-21T19:29:29.347Z,25.40
2018-08-21T19:31:56.726Z,25.40
2018-08-21T19:34:24.200Z,25.30
2018-08-21T19:36:51.643Z,25.30
2018-08-21T19:39:19.020Z,25.20
2018-08-21T19:41:46.341Z,25.20
2018-08-21T19:44:13.946Z,25.10
2018-08-21T19:46:41.291Z,25.00
2018-08-21T19:49:08.656Z,24.90
2018-08-21T19:51:35.996Z,24.80
2018-08-21T19:54:03.613Z,24.80
2018-08-21T19:56:31.184Z,24.70
2018-08-21T19:58:58.540Z,24.70
2018-08-21T20:01:25.856Z,24.60
2018-08-21T20:03:55.811Z,24.50
2018-08-21T20:06:23.180Z,24.40
2018-08-21T20:08:50.583Z,24.40
2018-08-21T20:11:17.927Z,24.30
2018-08-21T20:13:45.395Z,24.20
2018-08-21T20:16:12.786Z,24.30
2018-08-21T20:18:40.109Z,24.20
2018-08-21T20:21:07.477Z,24.10
2018-08-21T20:23:34.803Z,24.10
2018-08-21T20:26:02.207Z,24.10
2018-08-21T20:28:29.598Z,24.00
2018-08-21T20:30:57.451Z,23.90
2018-08-21T20:33:24.764Z,24.00
2018-08-21T20:35:52.163Z,23.80
2018-08-21T20:38:19.590Z,23.80
2018-08-21T20:40:49.381Z,23.70
2018-08-21T20:43:16.767Z,23.70
2018-08-21T20:45:44.161Z,23.70
2018-08-21T20:48:11.975Z,23.70
2018-08-21T20:50:39.367Z,23.70
2018-08-21T20:53:06.985Z,23.70
2018-08-21T20:55:34.419Z,23.70
2018-08-21T20:58:01.828Z,23.70
2018-08-21T21:00:29.312Z,23.70
2018-08-21T21:02:56.727Z,23.70
2018-08-21T21:05:24.123Z,23.70
2018-08-21T21:07:51.536Z,23.70
2018-08-21T21:10:18.990Z,23.70
2018-08-21T21:12:46.849Z,23.70
2018-08-21T21:15:26.547Z,23.70
2018-08-21T21:18:05.612Z,23.70
2018-08-21T21:20:45.749Z,23.70
2018-08-21T21:23:20.232Z,23.60
2018-08-21T21:25:48.744Z,23.50
2018-08-21T21:28:17.393Z,23.50
2018-08-21T21:30:45.091Z,23.40
2018-08-21T21:33:12.875Z,23.40
2018-08-21T21:35:40.356Z,23.30
2018-08-21T21:38:08.122Z,23.30
2018-08-21T21:40:35.654Z,23.20
2018-08-21T21:43:04.451Z,23.10
2018-08-21T21:45:32.388Z,23.00
2018-08-21T21:47:59.860Z,22.90
2018-08-21T21:50:29.278Z,22.80
2018-08-21T21:52:56.630Z,22.70
2018-08-21T21:55:24.224Z,22.50
2018-08-21T21:57:51.741Z,22.50
2018-08-21T22:00:19.434Z,22.40
2018-08-21T22:02:47.015Z,22.30
2018-08-21T22:05:14.590Z,22.20
2018-08-21T22:07:42.110Z,22.10
2018-08-21T22:10:09.827Z,22.10
2018-08-21T22:12:37.245Z,22.00
2018-08-21T22:15:04.611Z,22.00
2018-08-21T22:17:31.967Z,21.90
2018-08-21T22:19:59.267Z,21.90
2018-08-21T22:22:26.603Z,21.80
2018-08-21T22:24:54.011Z,21.70
2018-08-21T22:27:21.566Z,21.70
2018-08-21T22:29:48.994Z,21.70
2018-08-21T22:32:16.391Z,21.60
2018-08-21T22:34:43.909Z,21.50
2018-08-21T22:37:11.349Z,21.50
2018-08-21T22:39:38.719Z,21.40
2018-08-21T22:42:06.127Z,21.40
2018-08-21T22:44:33.543Z,21.30
2018-08-21T22:47:00.961Z,21.30
2018-08-21T22:49:28.464Z,21.20
2018-08-21T22:51:55.865Z,21.20
2018-08-21T22:54:23.573Z,21.20
2018-08-21T22:56:51.006Z,21.10
2018-08-21T22:59:20.971Z,21.10
2018-08-21T23:01:48.408Z,21.10
2018-08-21T23:04:15.811Z,21.00
2018-08-21T23:06:43.274Z,21.00
2018-08-21T23:09:10.691Z,20.90
2018-08-21T23:11:38.070Z,21.00
2018-08-21T23:14:05.505Z,20.90
2018-08-21T23:16:32.907Z,20.90
2018-08-21T23:19:00.332Z,20.90
2018-08-21T23:21:27.887Z,20.80
2018-08-21T23:23:55.319Z,20.80
2018-08-21T23:26:25.547Z,20.80
2018-08-21T23:28:52.883Z,20.80
2018-08-21T23:31:20.220Z,20.90
2018-08-21T23:33:47.603Z,20.90
2018-08-21T23:36:15.103Z,20.90
2018-08-21T23:38:42.575Z,20.90
2018-08-21T23:41:09.949Z,20.90
2018-08-21T23:43:39.782Z,20.90
2018-08-21T23:46:07.127Z,20.90
2018-08-21T23:48:34.471Z,20.90
2018-08-21T23:51:02.431Z,20.90
2018-08-21T23:53:29.868Z,21.00
2018-08-21T23:55:57.319Z,20.90
2018-08-21T23:58:24.677Z,20.90
